createdAt,value
2023-03-21T00:01:57.761Z,237.25
2023-03-21T00:04:28.360Z,178.02
2023-03-21T00:06:58.314Z,181.77
2023-03-21T00:09:25.404Z,172.05
2023-03-21T00:11:52.488Z,202.73
2023-03-21T00:14:20.617Z,292.58
2023-03-21T00:16:52.090Z,186.73
2023-03-21T00:19:21.218Z,203.15
2023-03-21T00:22:08.760Z,318.27
2023-03-21T00:24:37.471Z,232.98
2023-03-21T00:29:52.392Z,319.55
2023-03-21T00:32:21.689Z,246.38
2023-03-21T00:35:38.292Z,293.00
2023-03-21T00:37:37.546Z,376.55
2023-03-21T00:40:16.407Z,228.73
2023-03-21T00:42:50.662Z,211.77
2023-03-21T00:45:19.476Z,192.73
2023-03-21T00:47:46.594Z,234.50
2023-03-21T00:50:13.976Z,138.68
2023-03-21T00:52:41.473Z,257.88
2023-03-21T00:55:14.813Z,162.82
2023-03-21T00:57:45.366Z,60.95
2023-03-21T01:00:15.992Z,159.52
2023-03-21T01:03:14.096Z,185.60
2023-03-21T01:06:05.997Z,281.48
2023-03-21T01:08:55.020Z,192.85
2023-03-21T01:11:24.895Z,251.93
2023-03-21T01:13:59.837Z,332.80
2023-03-21T01:17:40.873Z,293.50
2023-03-21T01:20:08.464Z,322.05
2023-03-21T01:22:35.748Z,383.65
2023-03-21T01:25:19.235Z,142.38
2023-03-21T01:27:48.400Z,114.00
2023-03-21T01:30:21.489Z,262.58
2023-03-21T01:32:50.293Z,257.92
2023-03-21T01:35:17.435Z,299.20
2023-03-21T01:37:44.624Z,264.45
2023-03-21T01:41:20.966Z,415.95
2023-03-21T01:43:49.641Z,218.02
2023-03-21T01:46:57.390Z,396.15
2023-03-21T01:50:04.441Z,245.73
2023-03-21T01:52:42.335Z,261.02
2023-03-21T01:55:39.555Z,406.55
2023-03-21T01:58:18.301Z,477.92
2023-03-21T02:01:09.482Z,341.13
2023-03-21T02:03:52.687Z,144.07
2023-03-21T02:06:35.484Z,65.00
2023-03-21T02:09:18.706Z,244.57
2023-03-21T02:11:47.213Z,383.27
2023-03-21T02:14:28.278Z,331.77
2023-03-21T02:17:07.350Z,265.67
2023-03-21T02:19:53.904Z,99.55
2023-03-21T02:22:31.002Z,334.00
2023-03-21T02:25:33.586Z,356.75
2023-03-21T02:28:14.916Z,304.42
2023-03-21T02:30:54.708Z,320.63
2023-03-21T02:33:47.163Z,188.70
2023-03-21T02:36:14.861Z,131.75
2023-03-21T02:38:58.869Z,373.70
2023-03-21T02:41:44.136Z,282.42
2023-03-21T02:44:32.160Z,347.23
2023-03-21T02:47:06.325Z,252.00
2023-03-21T02:49:52.362Z,284.38
2023-03-21T02:52:37.335Z,414.25
2023-03-21T02:57:49.052Z,466.27
2023-03-21T03:00:20.938Z,306.02
2023-03-21T03:02:54.656Z,151.48
2023-03-21T03:05:29.643Z,474.38
2023-03-21T03:08:03.321Z,454.35
2023-03-21T03:10:52.181Z,442.85
2023-03-21T03:13:50.467Z,289.38
2023-03-21T03:16:52.206Z,301.92
2023-03-21T03:19:36.651Z,381.98
2023-03-21T03:22:21.884Z,476.58
2023-03-21T03:25:04.776Z,545.95
2023-03-21T03:27:44.262Z,284.58
2023-03-21T03:30:13.246Z,395.52
2023-03-21T03:32:54.113Z,496.65
2023-03-21T03:35:23.068Z,527.92
2023-03-21T03:37:56.715Z,386.05
2023-03-21T03:40:23.869Z,336.70
2023-03-21T03:43:07.496Z,354.25
2023-03-21T03:48:13.699Z,287.80
2023-03-21T03:50:44.681Z,340.38
2023-03-21T03:53:25.917Z,297.30
2023-03-21T03:55:56.836Z,395.85
2023-03-21T03:58:33.575Z,319.83
2023-03-21T04:01:11.095Z,297.05
2023-03-21T04:03:49.499Z,382.42
2023-03-21T04:06:19.051Z,445.98
2023-03-21T04:08:47.588Z,475.13
2023-03-21T04:11:18.376Z,250.57
2023-03-21T04:13:50.825Z,303.38
2023-03-21T04:16:23.599Z,495.45
2023-03-21T04:18:52.590Z,442.50
2023-03-21T04:21:21.678Z,589.78
2023-03-21T04:23:48.706Z,228.18
2023-03-21T04:26:16.373Z,211.32
2023-03-21T04:28:53.685Z,288.17
2023-03-21T04:31:41.675Z,307.08
2023-03-21T04:34:13.231Z,336.63
2023-03-21T04:36:49.629Z,461.73
2023-03-21T04:39:17.512Z,260.63
2023-03-21T04:41:48.628Z,286.08
2023-03-21T04:44:17.372Z,413.95
2023-03-21T04:46:44.965Z,183.35
2023-03-21T04:49:13.145Z,386.95
2023-03-21T04:51:44.112Z,193.45
2023-03-21T04:56:43.016Z,250.05
2023-03-21T04:59:12.886Z,593.45
2023-03-21T05:01:41.362Z,390.70
2023-03-21T05:04:11.244Z,367.70
2023-03-21T05:06:39.587Z,479.15
2023-03-21T05:09:07.202Z,277.95
2023-03-21T05:11:38.900Z,226.88
2023-03-21T05:14:11.287Z,615.42
2023-03-21T05:16:48.871Z,207.40
2023-03-21T05:19:18.167Z,416.13
2023-03-21T05:21:46.821Z,335.25
2023-03-21T05:24:21.092Z,347.15
2023-03-21T05:26:52.518Z,359.27
2023-03-21T05:29:23.354Z,391.23
2023-03-21T05:31:56.337Z,314.52
2023-03-21T05:34:24.555Z,333.80
2023-03-21T05:36:51.887Z,192.68
2023-03-21T05:39:20.515Z,178.48
2023-03-21T05:41:59.411Z,396.60
2023-03-21T05:44:27.457Z,371.27
2023-03-21T05:46:54.994Z,232.05
2023-03-21T05:49:27.597Z,310.80
2023-03-21T05:51:59.205Z,475.70
2023-03-21T05:54:26.405Z,496.83
2023-03-21T05:56:54.381Z,471.98
2023-03-21T05:59:41.858Z,374.98
2023-03-21T06:02:09.319Z,227.23
2023-03-21T06:04:36.414Z,565.67
2023-03-21T06:07:04.178Z,359.17
2023-03-21T06:09:31.421Z,358.13
2023-03-21T06:12:02.182Z,496.85
2023-03-21T06:14:47.471Z,418.67
2023-03-21T06:17:34.988Z,238.68
2023-03-21T06:20:07.501Z,401.58
2023-03-21T06:22:40.506Z,472.50
2023-03-21T06:25:08.651Z,498.63
2023-03-21T06:27:36.967Z,470.65
2023-03-21T06:30:06.933Z,549.88
2023-03-21T06:32:39.357Z,302.92
2023-03-21T06:35:13.561Z,428.50
2023-03-21T06:37:40.819Z,222.57
2023-03-21T06:40:09.988Z,323.85
2023-03-21T06:42:37.117Z,337.27
2023-03-21T06:45:10.632Z,369.63
2023-03-21T06:47:37.894Z,388.42
2023-03-21T06:50:10.930Z,456.95
2023-03-21T06:52:41.989Z,262.35
2023-03-21T06:55:09.542Z,257.00
2023-03-21T06:57:36.623Z,211.25
2023-03-21T07:00:05.632Z,181.85
2023-03-21T07:03:42.512Z,264.77
2023-03-21T07:06:12.076Z,101.38
2023-03-21T07:08:42.265Z,354.58
2023-03-21T07:11:10.045Z,351.85
2023-03-21T07:13:37.088Z,341.45
2023-03-21T07:16:05.905Z,301.90
2023-03-21T07:18:33.406Z,294.92
2023-03-21T07:21:00.526Z,368.55
2023-03-21T07:23:28.295Z,401.65
2023-03-21T07:25:55.861Z,454.15
2023-03-21T07:28:23.568Z,500.00
2023-03-21T07:30:57.025Z,232.55
2023-03-21T07:33:24.929Z,419.90
2023-03-21T07:35:55.206Z,203.80
2023-03-21T07:38:22.500Z,260.55
2023-03-21T07:40:50.053Z,207.27
2023-03-21T07:45:57.095Z,349.67
2023-03-21T07:48:24.565Z,336.60
2023-03-21T07:50:51.713Z,158.65
2023-03-21T07:53:19.082Z,434.65
2023-03-21T07:55:50.505Z,417.15
2023-03-21T07:58:17.515Z,391.13
2023-03-21T08:00:44.575Z,102.10
2023-03-21T08:03:12.313Z,331.75
2023-03-21T08:05:41.178Z,580.60
2023-03-21T08:08:08.620Z,512.03
2023-03-21T08:10:36.307Z,575.00
2023-03-21T08:13:04.357Z,313.50
2023-03-21T08:15:31.618Z,364.75
2023-03-21T08:18:00.208Z,71.70
2023-03-21T08:20:27.978Z,342.30
2023-03-21T08:22:55.230Z,203.45
2023-03-21T08:25:23.219Z,366.23
2023-03-21T08:27:51.659Z,170.90
2023-03-21T08:30:23.895Z,471.13
2023-03-21T08:32:51.447Z,644.10
2023-03-21T08:35:20.542Z,687.50
2023-03-21T08:37:47.632Z,770.15
2023-03-21T08:40:17.547Z,720.40
2023-03-21T08:42:46.598Z,584.83
2023-03-21T08:45:16.184Z,683.72
2023-03-21T08:47:43.610Z,734.97
2023-03-21T08:50:15.759Z,598.17
2023-03-21T08:52:43.387Z,493.25
2023-03-21T08:55:11.768Z,489.52
2023-03-21T08:57:39.014Z,386.58
2023-03-21T09:00:38.400Z,549.90
2023-03-21T09:03:05.481Z,595.13
2023-03-21T09:05:32.679Z,597.15
2023-03-21T09:08:01.739Z,764.15
2023-03-21T09:11:37.606Z,490.67
2023-03-21T09:14:05.658Z,470.40
2023-03-21T09:16:33.544Z,655.33
2023-03-21T09:19:01.256Z,684.72
2023-03-21T09:21:31.428Z,618.13
2023-03-21T09:24:00.107Z,532.35
2023-03-21T09:26:28.305Z,651.42
2023-03-21T09:28:56.059Z,259.55
2023-03-21T09:31:23.523Z,508.05
2023-03-21T09:34:23.261Z,653.85
2023-03-21T09:36:52.160Z,618.38
2023-03-21T09:39:19.266Z,711.38
2023-03-21T09:42:03.242Z,586.40
2023-03-21T10:17:37.810Z,60.97
2023-03-21T10:20:14.827Z,59.35
2023-03-21T10:22:43.779Z,59.50
2023-03-21T10:25:16.611Z,64.50
2023-03-21T10:27:43.682Z,78.72
2023-03-21T10:30:40.548Z,30.25
2023-03-21T10:33:13.208Z,13.50
2023-03-21T10:35:44.283Z,16.02
2023-03-21T10:38:49.186Z,91.13
2023-03-21T10:41:16.863Z,11.07
2023-03-21T10:43:46.028Z,23.10
2023-03-21T10:46:18.197Z,13.27
2023-03-21T10:48:48.288Z,21.50
2023-03-21T10:51:19.738Z,16.20
2023-03-21T10:53:55.571Z,90.80
2023-03-21T10:56:31.832Z,90.07
2023-03-21T10:59:01.659Z,37.45
2023-03-21T11:01:46.666Z,22.92
2023-03-21T11:04:22.747Z,25.10
2023-03-21T11:06:55.733Z,18.70
2023-03-21T11:09:42.563Z,17.67
2023-03-21T11:12:15.155Z,20.30
2023-03-21T11:14:45.892Z,20.10
2023-03-21T11:17:18.723Z,20.02
2023-03-21T11:19:52.707Z,23.95
2023-03-21T11:22:23.135Z,23.13
2023-03-21T11:24:57.033Z,23.45
2023-03-21T11:27:29.421Z,21.45
2023-03-21T11:29:59.891Z,24.73
2023-03-21T11:32:34.088Z,22.80
2023-03-21T11:35:18.221Z,28.70
2023-03-21T11:37:51.337Z,31.27
2023-03-21T11:40:31.163Z,35.53
2023-03-21T11:43:01.755Z,28.92
2023-03-21T11:45:36.085Z,33.15
2023-03-21T11:48:13.164Z,43.78
2023-03-21T11:50:45.017Z,40.83
2023-03-21T11:53:20.978Z,28.55
2023-03-21T11:56:23.352Z,36.58
2023-03-21T11:59:07.173Z,34.30
2023-03-21T12:01:57.557Z,33.08
2023-03-21T12:04:33.467Z,33.58
2023-03-21T12:07:23.385Z,36.45
2023-03-21T12:10:28.977Z,44.53
2023-03-21T12:13:04.086Z,34.63
2023-03-21T12:15:37.759Z,31.83
2023-03-21T12:18:21.053Z,32.15
2023-03-21T12:21:00.727Z,25.55
2023-03-21T12:23:33.769Z,32.08
2023-03-21T12:26:03.835Z,27.75
2023-03-21T12:28:48.345Z,44.88
2023-03-21T12:31:34.091Z,29.08
2023-03-21T12:34:29.005Z,27.25
2023-03-21T12:37:26.439Z,30.23
2023-03-21T12:40:00.874Z,26.73
2023-03-21T12:42:45.718Z,35.55
2023-03-21T12:45:19.542Z,56.90
2023-03-21T12:47:55.885Z,20.63
2023-03-21T12:50:28.271Z,58.05
2023-03-21T12:53:05.518Z,31.05
2023-03-21T12:56:07.810Z,21.83
2023-03-21T12:58:53.006Z,23.80
2023-03-21T13:01:22.758Z,25.90
2023-03-21T13:04:06.119Z,24.90
2023-03-21T13:06:34.659Z,31.77
2023-03-21T13:09:37.290Z,26.77
2023-03-21T13:12:41.259Z,26.38
2023-03-21T13:15:32.858Z,38.72
2023-03-21T13:18:12.213Z,31.95
2023-03-21T13:20:50.581Z,23.38
2023-03-21T13:23:21.391Z,28.02
2023-03-21T13:25:51.115Z,158.27
2023-03-21T13:28:28.688Z,42.58
2023-03-21T13:31:18.374Z,29.77
2023-03-21T13:33:54.646Z,30.05
2023-03-21T13:36:28.570Z,66.43
2023-03-21T13:39:01.537Z,90.85
2023-03-21T13:41:39.022Z,32.83
2023-03-21T13:44:19.397Z,218.27
2023-03-21T13:47:01.250Z,102.13
2023-03-21T13:49:37.154Z,257.95
2023-03-21T13:52:28.258Z,68.65
2023-03-21T13:54:57.869Z,147.75
2023-03-21T13:57:29.543Z,92.55
2023-03-21T14:00:39.814Z,166.10
2023-03-21T14:03:10.353Z,135.25
2023-03-21T14:05:39.411Z,393.55
2023-03-21T14:08:27.893Z,240.15
2023-03-21T14:11:04.213Z,286.13
2023-03-21T14:13:33.162Z,304.65
2023-03-21T14:16:10.414Z,135.60
2023-03-21T14:19:06.722Z,394.42
2023-03-21T14:21:35.645Z,224.23
2023-03-21T14:25:11.542Z,309.52
2023-03-21T14:27:42.383Z,294.80
2023-03-21T14:30:20.487Z,334.83
2023-03-21T14:32:47.824Z,264.92
2023-03-21T14:35:15.747Z,436.95
2023-03-21T14:37:46.438Z,371.38
2023-03-21T14:40:53.122Z,419.33
2023-03-21T14:43:21.584Z,515.42
2023-03-21T14:45:53.199Z,315.02
2023-03-21T14:48:21.775Z,356.75
2023-03-21T14:50:51.727Z,437.83
2023-03-21T14:54:27.700Z,306.30
2023-03-21T14:57:00.934Z,320.08
2023-03-21T14:59:32.774Z,286.88
2023-03-21T15:02:03.917Z,405.40
2023-03-21T15:04:32.387Z,498.45
2023-03-21T15:07:05.234Z,436.88
2023-03-21T15:09:34.887Z,405.02
2023-03-21T15:12:07.675Z,529.78
2023-03-21T15:14:36.873Z,651.17
2023-03-21T15:17:06.156Z,403.35
2023-03-21T15:19:36.497Z,365.73
2023-03-21T15:22:41.018Z,675.75
2023-03-21T15:25:12.853Z,462.08
2023-03-21T15:27:42.667Z,381.23
2023-03-21T15:30:25.704Z,287.17
2023-03-21T15:32:53.475Z,400.73
2023-03-21T15:35:27.094Z,576.67
2023-03-21T15:37:57.483Z,201.98
2023-03-21T15:40:30.781Z,375.85
2023-03-21T15:43:17.939Z,163.95
2023-03-21T15:45:53.486Z,359.33
2023-03-21T15:48:28.494Z,285.20
2023-03-21T15:50:55.659Z,336.63
2023-03-21T15:53:24.446Z,248.57
2023-03-21T15:55:57.139Z,556.25
2023-03-21T15:58:27.492Z,753.92
2023-03-21T16:00:56.714Z,749.92
2023-03-21T16:03:32.445Z,890.78
2023-03-21T16:06:15.567Z,746.78
2023-03-21T16:09:51.996Z,817.28
2023-03-21T16:12:19.066Z,714.92
2023-03-21T16:14:47.472Z,533.63
2023-03-21T16:17:23.825Z,871.55
2023-03-21T16:19:51.172Z,795.53
2023-03-21T16:22:20.034Z,651.78
2023-03-21T16:24:47.261Z,767.90
2023-03-21T16:27:17.121Z,841.97
2023-03-21T16:29:44.382Z,766.65
2023-03-21T16:32:17.351Z,489.08
2023-03-21T16:34:46.400Z,549.25
2023-03-21T16:37:16.165Z,449.95
2023-03-21T16:39:43.211Z,505.73
2023-03-21T16:42:12.704Z,533.38
2023-03-21T16:44:41.067Z,537.63
2023-03-21T16:47:19.687Z,586.85
2023-03-21T16:49:47.129Z,472.02
2023-03-21T16:52:15.301Z,428.63
2023-03-21T16:54:43.153Z,292.25
2023-03-21T16:57:27.867Z,617.47
2023-03-21T16:59:56.162Z,487.23
2023-03-21T17:02:25.503Z,690.10
2023-03-21T17:04:52.646Z,717.28
2023-03-21T17:07:19.891Z,553.38
2023-03-21T17:09:48.281Z,616.92
2023-03-21T17:12:16.778Z,670.10
2023-03-21T17:14:44.996Z,740.70
2023-03-21T17:17:13.480Z,921.20
2023-03-21T17:19:40.503Z,834.65
2023-03-21T17:22:08.643Z,536.83
2023-03-21T17:24:36.414Z,434.10
2023-03-21T17:27:11.797Z,61.40
2023-03-21T17:29:38.845Z,18.48
2023-03-21T17:32:06.054Z,17.20
2023-03-21T17:34:33.102Z,13.02
2023-03-21T17:37:00.266Z,14.05
2023-03-21T17:39:28.863Z,10.38
2023-03-21T17:41:57.048Z,13.48
2023-03-21T17:44:24.200Z,13.25
2023-03-21T17:46:52.215Z,11.18
2023-03-21T17:49:21.276Z,17.85
2023-03-21T17:51:48.468Z,188.20
2023-03-21T17:54:15.528Z,99.57
2023-03-21T17:56:42.966Z,230.45
2023-03-21T17:59:13.440Z,107.95
2023-03-21T18:01:41.573Z,163.68
2023-03-21T18:04:08.820Z,348.35
2023-03-21T18:06:37.516Z,225.02
2023-03-21T18:09:12.002Z,166.60
2023-03-21T18:11:40.367Z,156.75
2023-03-21T18:14:16.287Z,476.40
2023-03-21T18:16:45.523Z,121.45
2023-03-21T18:19:13.547Z,403.13
2023-03-21T18:21:45.828Z,369.48
2023-03-21T18:24:13.917Z,289.08
2023-03-21T18:26:41.686Z,264.92
2023-03-21T18:32:06.997Z,369.02
2023-03-21T18:34:37.066Z,190.48
2023-03-21T18:37:07.536Z,742.47
2023-03-21T18:39:35.443Z,386.75
2023-03-21T18:42:04.153Z,619.95
2023-03-21T18:44:37.850Z,369.85
2023-03-21T18:47:06.655Z,411.60
2023-03-21T18:52:21.440Z,313.20
2023-03-21T18:54:49.253Z,152.15
2023-03-21T18:57:35.685Z,477.85
2023-03-21T19:00:11.119Z,613.03
2023-03-21T19:02:43.291Z,253.30
2023-03-21T19:05:12.675Z,508.20
2023-03-21T19:07:39.889Z,459.60
2023-03-21T19:10:17.509Z,377.33
2023-03-21T19:12:45.514Z,397.80
2023-03-21T19:15:12.553Z,374.88
2023-03-21T19:20:27.396Z,451.88
2023-03-21T19:22:58.166Z,476.67
2023-03-21T19:25:25.370Z,158.07
2023-03-21T19:27:52.411Z,481.17
2023-03-21T19:30:19.726Z,331.45
2023-03-21T19:32:47.273Z,317.25
2023-03-21T19:35:14.473Z,405.00
2023-03-21T19:37:41.852Z,383.58
2023-03-21T19:40:10.294Z,336.55
2023-03-21T19:42:37.438Z,350.92
2023-03-21T19:45:05.619Z,286.80
2023-03-21T19:47:32.862Z,363.52
2023-03-21T19:50:43.788Z,314.27
2023-03-21T19:52:47.081Z,370.27
2023-03-21T19:55:15.096Z,207.38
2023-03-21T19:57:42.245Z,267.27
2023-03-21T20:00:11.598Z,196.25
2023-03-21T20:02:39.015Z,182.68
2023-03-21T20:05:07.936Z,239.95
2023-03-21T20:07:35.298Z,392.70
2023-03-21T20:10:02.588Z,404.50
2023-03-21T20:12:29.591Z,415.42
2023-03-21T20:15:10.276Z,504.90
2023-03-21T20:17:43.156Z,492.88
2023-03-21T20:20:14.061Z,528.17
2023-03-21T20:23:05.862Z,464.70
2023-03-21T20:25:33.805Z,291.02
2023-03-21T20:28:15.059Z,286.38
2023-03-21T20:30:53.090Z,361.77
2023-03-21T20:33:20.599Z,239.48
2023-03-21T20:38:36.953Z,358.45
2023-03-21T20:41:06.284Z,481.88
2023-03-21T20:46:20.887Z,465.05
2023-03-21T20:48:49.794Z,340.60
2023-03-21T20:52:26.855Z,522.00
2023-03-21T20:54:04.932Z,233.48
2023-03-21T20:56:32.330Z,365.30
2023-03-21T20:59:15.338Z,286.63
2023-03-21T21:01:45.468Z,249.15
2023-03-21T21:04:19.345Z,429.23
2023-03-21T21:06:48.112Z,89.30
2023-03-21T21:09:15.704Z,512.17
2023-03-21T21:12:06.119Z,347.33
2023-03-21T21:14:30.268Z,263.10
2023-03-21T21:16:57.258Z,555.47
2023-03-21T21:19:24.644Z,563.17
2023-03-21T21:21:51.655Z,430.60
2023-03-21T21:24:18.779Z,193.63
2023-03-21T21:26:48.332Z,443.05
2023-03-21T21:29:18.705Z,200.18
2023-03-21T21:31:48.958Z,182.70
2023-03-21T21:34:18.154Z,195.77
2023-03-21T21:36:45.855Z,369.02
2023-03-21T21:39:15.756Z,482.35
2023-03-21T21:41:43.287Z,715.85
2023-03-21T21:44:11.136Z,487.45
2023-03-21T21:46:38.829Z,304.15
2023-03-21T21:49:05.927Z,288.10
2023-03-21T21:51:34.171Z,400.00
2023-03-21T21:54:03.846Z,391.73
2023-03-21T21:56:32.250Z,357.48
2023-03-21T21:59:03.144Z,265.75
2023-03-21T22:01:31.315Z,469.52
2023-03-21T22:04:06.331Z,419.35
2023-03-21T22:06:34.631Z,459.92
2023-03-21T22:09:02.446Z,461.13
2023-03-21T22:11:29.423Z,357.77
2023-03-21T22:13:56.590Z,427.05
2023-03-21T22:16:23.649Z,555.85
2023-03-21T22:18:50.687Z,516.25
2023-03-21T22:21:17.697Z,413.27
2023-03-21T22:23:44.967Z,416.08
2023-03-21T22:26:12.059Z,487.20
2023-03-21T22:28:42.167Z,390.95
2023-03-21T22:31:12.915Z,539.08
2023-03-21T22:33:40.110Z,456.58
2023-03-21T22:36:07.681Z,445.08
2023-03-21T22:38:34.985Z,526.13
2023-03-21T22:41:04.132Z,782.97
2023-03-21T22:43:34.322Z,554.70
2023-03-21T22:46:05.596Z,490.83
2023-03-21T22:48:33.320Z,549.53
2023-03-21T22:51:01.043Z,642.90
2023-03-21T22:53:28.707Z,747.28
2023-03-21T22:55:56.336Z,495.02
2023-03-21T22:58:23.498Z,566.83
2023-03-21T23:00:50.729Z,461.75
2023-03-21T23:03:17.997Z,279.30
2023-03-21T23:05:45.802Z,189.73
2023-03-21T23:08:13.151Z,166.88
2023-03-21T23:10:43.592Z,288.88
2023-03-21T23:13:11.031Z,348.63
2023-03-21T23:15:41.924Z,502.65
2023-03-21T23:18:08.956Z,128.30
2023-03-21T23:20:36.305Z,119.43
2023-03-21T23:23:03.330Z,161.10
2023-03-21T23:25:30.613Z,27.23
2023-03-21T23:27:57.853Z,21.35
2023-03-21T23:30:25.325Z,21.05
2023-03-21T23:32:52.415Z,55.60
2023-03-21T23:35:19.572Z,41.72
2023-03-21T23:37:52.876Z,44.95
2023-03-21T23:40:20.957Z,20.55
2023-03-21T23:42:47.984Z,18.77
2023-03-21T23:45:15.125Z,16.30
2023-03-21T23:47:42.203Z,19.02
2023-03-21T23:50:10.526Z,21.35
2023-03-21T23:52:38.238Z,17.65
2023-03-21T23:55:06.140Z,13.50
2023-03-21T23:57:33.337Z,20.88
